sensor_id;sensor_type;location;lat;lon;timestamp;temperature;humidity
3896;DHT22;1963;48.804;8.358;2023-03-03T05:47:01;1.80;82.10
3896;DHT22;1963;48.804;8.358;2023-03-03T16:42:56;9.10;66.90
3896;DHT22;1963;48.804;8.358;2023-03-03T16:46:37;9.10;66.80
3896;DHT22;1963;48.804;8.358;2023-03-03T16:49:08;9.00;66.60
3896;DHT22;1963;48.804;8.358;2023-03-03T16:51:47;9.00;67.20
3896;DHT22;1963;48.804;8.358;2023-03-03T16:54:24;9.00;67.30
3896;DHT22;1963;48.804;8.358;2023-03-03T16:57:04;8.90;67.40
3896;DHT22;1963;48.804;8.358;2023-03-03T16:59:44;8.80;67.30
3896;DHT22;1963;48.804;8.358;2023-03-03T17:02:24;9.00;67.70
3896;DHT22;1963;48.804;8.358;2023-03-03T17:05:01;8.80;67.90
3896;DHT22;1963;48.804;8.358;2023-03-03T17:07:38;8.80;68.70
3896;DHT22;1963;48.804;8.358;2023-03-03T17:10:24;8.60;67.80
3896;DHT22;1963;48.804;8.358;2023-03-03T17:13:03;8.50;68.10
3896;DHT22;1963;48.804;8.358;2023-03-03T17:15:42;8.40;68.40
3896;DHT22;1963;48.804;8.358;2023-03-03T17:18:15;8.20;68.30
3896;DHT22;1963;48.804;8.358;2023-03-03T17:20:47;8.10;68.30
3896;DHT22;1963;48.804;8.358;2023-03-03T17:23:46;7.90;68.70
3896;DHT22;1963;48.804;8.358;2023-03-03T17:26:44;7.80;68.80
3896;DHT22;1963;48.804;8.358;2023-03-03T17:29:32;7.60;69.50
3896;DHT22;1963;48.804;8.358;2023-03-03T17:32:12;7.30;69.80
3896;DHT22;1963;48.804;8.358;2023-03-03T17:35:03;7.10;70.80
3896;DHT22;1963;48.804;8.358;2023-03-03T17:37:40;6.90;70.40
3896;DHT22;1963;48.804;8.358;2023-03-03T17:40:24;7.00;69.70
3896;DHT22;1963;48.804;8.358;2023-03-03T17:42:57;6.60;70.30
3896;DHT22;1963;48.804;8.358;2023-03-03T17:45:30;6.60;70.90
3896;DHT22;1963;48.804;8.358;2023-03-03T17:48:24;6.30;71.50
3896;DHT22;1963;48.804;8.358;2023-03-03T17:51:09;6.30;72.40
3896;DHT22;1963;48.804;8.358;2023-03-03T17:54:04;6.10;72.90
3896;DHT22;1963;48.804;8.358;2023-03-03T17:56:43;6.00;71.90
3896;DHT22;1963;48.804;8.358;2023-03-03T17:59:36;5.90;71.80
3896;DHT22;1963;48.804;8.358;2023-03-03T18:02:29;5.80;71.20
3896;DHT22;1963;48.804;8.358;2023-03-03T18:05:29;5.60;72.20
3896;DHT22;1963;48.804;8.358;2023-03-03T18:08:26;5.50;73.30
3896;DHT22;1963;48.804;8.358;2023-03-03T18:11:07;5.30;73.70
3896;DHT22;1963;48.804;8.358;2023-03-03T18:13:55;5.20;73.80
3896;DHT22;1963;48.804;8.358;2023-03-03T18:16:46;5.10;72.90
3896;DHT22;1963;48.804;8.358;2023-03-03T18:19:34;5.00;74.60
3896;DHT22;1963;48.804;8.358;2023-03-03T18:22:19;4.80;75.30
3896;DHT22;1963;48.804;8.358;2023-03-03T18:25:00;4.80;74.40
3896;DHT22;1963;48.804;8.358;2023-03-03T18:27:34;4.80;72.90
3896;DHT22;1963;48.804;8.358;2023-03-03T18:30:23;4.70;72.30
3896;DHT22;1963;48.804;8.358;2023-03-03T18:33:16;4.80;73.00
3896;DHT22;1963;48.804;8.358;2023-03-03T18:36:12;4.50;75.30
3896;DHT22;1963;48.804;8.358;2023-03-03T18:38:43;4.40;74.30
3896;DHT22;1963;48.804;8.358;2023-03-03T18:41:21;4.40;73.90
3896;DHT22;1963;48.804;8.358;2023-03-03T18:43:53;4.30;72.80
3896;DHT22;1963;48.804;8.358;2023-03-03T18:46:44;4.30;74.30
3896;DHT22;1963;48.804;8.358;2023-03-03T18:49:12;4.20;74.20
3896;DHT22;1963;48.804;8.358;2023-03-03T18:54:37;4.10;75.30
3896;DHT22;1963;48.804;8.358;2023-03-03T18:57:16;4.00;72.60
3896;DHT22;1963;48.804;8.358;2023-03-03T18:59:52;4.00;75.20
3896;DHT22;1963;48.804;8.358;2023-03-03T19:02:33;4.00;73.90
3896;DHT22;1963;48.804;8.358;2023-03-03T19:05:17;3.90;72.20
3896;DHT22;1963;48.804;8.358;2023-03-03T19:07:50;3.80;75.60
3896;DHT22;1963;48.804;8.358;2023-03-03T19:10:54;3.70;74.10
3896;DHT22;1963;48.804;8.358;2023-03-03T19:13:42;3.70;74.20
3896;DHT22;1963;48.804;8.358;2023-03-03T19:16:35;3.60;73.20
3896;DHT22;1963;48.804;8.358;2023-03-03T19:19:09;3.60;73.80
3896;DHT22;1963;48.804;8.358;2023-03-03T19:21:38;3.50;75.10
3896;DHT22;1963;48.804;8.358;2023-03-03T19:24:27;3.40;75.00
3896;DHT22;1963;48.804;8.358;2023-03-03T19:27:13;3.40;74.60
3896;DHT22;1963;48.804;8.358;2023-03-03T19:30:16;3.30;74.20
3896;DHT22;1963;48.804;8.358;2023-03-03T19:57:54;2.80;75.70
3896;DHT22;1963;48.804;8.358;2023-03-03T20:00:32;2.70;74.40
3896;DHT22;1963;48.804;8.358;2023-03-03T20:06:20;2.70;74.30
3896;DHT22;1963;48.804;8.358;2023-03-03T20:08:55;2.60;77.50
3896;DHT22;1963;48.804;8.358;2023-03-03T20:11:35;2.70;78.00
3896;DHT22;1963;48.804;8.358;2023-03-03T20:14:35;2.50;75.50
3896;DHT22;1963;48.804;8.358;2023-03-03T20:17:38;2.50;75.60
3896;DHT22;1963;48.804;8.358;2023-03-03T20:20:20;2.50;77.00
3896;DHT22;1963;48.804;8.358;2023-03-03T20:22:55;2.40;75.00
3896;DHT22;1963;48.804;8.358;2023-03-03T20:25:36;2.40;75.00
3896;DHT22;1963;48.804;8.358;2023-03-03T20:28:23;2.30;77.60
3896;DHT22;1963;48.804;8.358;2023-03-03T20:31:03;2.40;76.20
3896;DHT22;1963;48.804;8.358;2023-03-03T20:33:44;2.20;76.30
3896;DHT22;1963;48.804;8.358;2023-03-03T20:36:23;2.40;77.70
3896;DHT22;1963;48.804;8.358;2023-03-03T20:39:02;2.10;75.70
3896;DHT22;1963;48.804;8.358;2023-03-03T20:41:46;2.20;78.20
3896;DHT22;1963;48.804;8.358;2023-03-03T20:44:25;2.10;78.00
3896;DHT22;1963;48.804;8.358;2023-03-03T20:47:02;2.00;79.50
3896;DHT22;1963;48.804;8.358;2023-03-03T20:49:52;2.00;78.60
3896;DHT22;1963;48.804;8.358;2023-03-03T20:52:31;1.90;77.50
3896;DHT22;1963;48.804;8.358;2023-03-03T20:55:07;1.90;77.70
3896;DHT22;1963;48.804;8.358;2023-03-03T20:57:44;1.90;78.20
3896;DHT22;1963;48.804;8.358;2023-03-03T21:00:17;1.90;77.30
3896;DHT22;1963;48.804;8.358;2023-03-03T21:02:57;1.90;79.30
3896;DHT22;1963;48.804;8.358;2023-03-03T21:05:26;1.80;80.10
3896;DHT22;1963;48.804;8.358;2023-03-03T21:07:56;1.80;82.20
3896;DHT22;1963;48.804;8.358;2023-03-03T21:10:28;1.70;80.20
3896;DHT22;1963;48.804;8.358;2023-03-03T21:13:19;1.80;79.50
3896;DHT22;1963;48.804;8.358;2023-03-03T21:15:53;1.60;80.80
3896;DHT22;1963;48.804;8.358;2023-03-03T21:18:24;1.60;81.60
3896;DHT22;1963;48.804;8.358;2023-03-03T21:20:53;1.50;80.40
3896;DHT22;1963;48.804;8.358;2023-03-03T21:23:21;1.50;82.20
3896;DHT22;1963;48.804;8.358;2023-03-03T21:25:50;1.40;79.80
3896;DHT22;1963;48.804;8.358;2023-03-03T21:28:22;1.40;78.60
3896;DHT22;1963;48.804;8.358;2023-03-03T21:31:11;1.40;78.00
3896;DHT22;1963;48.804;8.358;2023-03-03T21:33:45;1.40;79.90
3896;DHT22;1963;48.804;8.358;2023-03-03T21:36:15;1.50;80.30
3896;DHT22;1963;48.804;8.358;2023-03-03T21:38:44;1.30;82.10
3896;DHT22;1963;48.804;8.358;2023-03-03T21:41:13;1.30;78.30
3896;DHT22;1963;48.804;8.358;2023-03-03T21:43:43;1.20;78.60
3896;DHT22;1963;48.804;8.358;2023-03-03T21:46:12;1.30;78.10
3896;DHT22;1963;48.804;8.358;2023-03-03T21:48:40;1.20;79.20
3896;DHT22;1963;48.804;8.358;2023-03-03T21:51:10;1.30;80.10
3896;DHT22;1963;48.804;8.358;2023-03-03T21:53:40;1.20;78.60
3896;DHT22;1963;48.804;8.358;2023-03-03T21:56:10;1.10;80.90
3896;DHT22;1963;48.804;8.358;2023-03-03T21:58:39;1.10;79.00
3896;DHT22;1963;48.804;8.358;2023-03-03T22:01:08;1.10;78.50
3896;DHT22;1963;48.804;8.358;2023-03-03T22:03:36;1.10;79.10
3896;DHT22;1963;48.804;8.358;2023-03-03T22:06:05;1.00;81.40
3896;DHT22;1963;48.804;8.358;2023-03-03T22:08:35;1.00;80.40
3896;DHT22;1963;48.804;8.358;2023-03-03T22:11:06;1.00;77.90
3896;DHT22;1963;48.804;8.358;2023-03-03T22:13:34;1.00;78.20
3896;DHT22;1963;48.804;8.358;2023-03-03T22:16:03;1.00;79.40
3896;DHT22;1963;48.804;8.358;2023-03-03T22:18:33;0.90;79.40
3896;DHT22;1963;48.804;8.358;2023-03-03T22:21:01;0.90;77.10
3896;DHT22;1963;48.804;8.358;2023-03-03T22:23:29;0.90;80.00
3896;DHT22;1963;48.804;8.358;2023-03-03T22:25:58;0.90;80.90
3896;DHT22;1963;48.804;8.358;2023-03-03T22:28:27;0.90;79.40
3896;DHT22;1963;48.804;8.358;2023-03-03T22:30:55;0.80;80.70
3896;DHT22;1963;48.804;8.358;2023-03-03T22:33:23;0.80;81.10
3896;DHT22;1963;48.804;8.358;2023-03-03T22:35:51;0.80;79.80
3896;DHT22;1963;48.804;8.358;2023-03-03T22:38:19;0.80;78.60
3896;DHT22;1963;48.804;8.358;2023-03-03T22:40:49;0.80;80.70
3896;DHT22;1963;48.804;8.358;2023-03-03T22:43:18;0.70;80.60
3896;DHT22;1963;48.804;8.358;2023-03-03T22:45:46;0.80;79.50
3896;DHT22;1963;48.804;8.358;2023-03-03T22:48:14;0.70;76.60
3896;DHT22;1963;48.804;8.358;2023-03-03T22:50:42;0.70;78.20
3896;DHT22;1963;48.804;8.358;2023-03-03T22:53:11;0.60;76.80
3896;DHT22;1963;48.804;8.358;2023-03-03T22:55:38;0.60;79.20
3896;DHT22;1963;48.804;8.358;2023-03-03T22:58:07;0.60;77.60
3896;DHT22;1963;48.804;8.358;2023-03-03T23:00:37;0.60;76.90
3896;DHT22;1963;48.804;8.358;2023-03-03T23:03:05;0.50;79.30
3896;DHT22;1963;48.804;8.358;2023-03-03T23:05:34;0.50;82.10
3896;DHT22;1963;48.804;8.358;2023-03-03T23:08:03;0.50;81.70
3896;DHT22;1963;48.804;8.358;2023-03-03T23:10:32;0.40;80.70
3896;DHT22;1963;48.804;8.358;2023-03-03T23:13:00;0.40;81.80
3896;DHT22;1963;48.804;8.358;2023-03-03T23:15:28;0.40;82.00
3896;DHT22;1963;48.804;8.358;2023-03-03T23:17:57;0.30;80.40
3896;DHT22;1963;48.804;8.358;2023-03-03T23:20:27;0.40;79.40
3896;DHT22;1963;48.804;8.358;2023-03-03T23:22:55;0.30;84.00
3896;DHT22;1963;48.804;8.358;2023-03-03T23:25:24;0.30;82.40
3896;DHT22;1963;48.804;8.358;2023-03-03T23:27:52;0.30;80.70
3896;DHT22;1963;48.804;8.358;2023-03-03T23:30:21;0.30;79.00
3896;DHT22;1963;48.804;8.358;2023-03-03T23:32:49;0.30;81.20
3896;DHT22;1963;48.804;8.358;2023-03-03T23:35:19;0.30;80.10
3896;DHT22;1963;48.804;8.358;2023-03-03T23:37:47;0.20;82.00
3896;DHT22;1963;48.804;8.358;2023-03-03T23:40:16;0.20;82.20
3896;DHT22;1963;48.804;8.358;2023-03-03T23:42:44;0.20;78.50
3896;DHT22;1963;48.804;8.358;2023-03-03T23:45:12;0.20;81.70
3896;DHT22;1963;48.804;8.358;2023-03-03T23:47:40;0.10;79.00
3896;DHT22;1963;48.804;8.358;2023-03-03T23:50:09;0.10;80.70
3896;DHT22;1963;48.804;8.358;2023-03-03T23:52:39;0.00;81.60
3896;DHT22;1963;48.804;8.358;2023-03-03T23:55:08;0.00;80.30
3896;DHT22;1963;48.804;8.358;2023-03-03T23:57:35;0.00;80.40
